KRFD

Chicago / Rockford International Airport

Chicago/Rockford, Illinois, USA
KRFD 221437Z 2215/2312 16013G21KT 3SM -FZDZSN OVC020 FM221900 16011G18KT 1SM -SN OVC008 FM222100 17010KT 1SM -SN OVC007 FM230100 06008KT 1SM -SN BR OVC005 FM230900 02009KT 3SM -SN BR OVC006
Issued Valid From Valid To
Jan-22 @ 14:37 UTC
(2 hours ago)
Jan-22 @ 15:00 UTC
(2 hours ago)
Jan-23 @ 12:00 UTC
(in 19 hours)
Jan-22 @ 15:00 to Jan-22 @ 19:00
KRFD 221437Z 2215/2312 16013G21KT 3SM -FZDZSN OVC020
Wind Visibility Clouds Conditions
160° at 13 knots
 Gusting to 21 knots
3 miles
  • Overcast at 2,000' AGL
  • Light Freezing
  • Light Drizzle
  • Snow
From Jan-22 @ 19:00 to Jan-22 @ 21:00
FM221900 16011G18KT 1SM -SN OVC008
Wind Visibility Clouds Conditions
160° at 11 knots
 Gusting to 18 knots
1 miles
  • Overcast at 800' AGL
  • Light Snow
From Jan-22 @ 21:00 to Jan-23 @ 01:00
FM222100 17010KT 1SM -SN OVC007
Wind Visibility Clouds Conditions
170° at 10 knots 1 miles
  • Overcast at 700' AGL
  • Light Snow
From Jan-23 @ 01:00 to Jan-23 @ 09:00
FM230100 06008KT 1SM -SN BR OVC005
Wind Visibility Clouds Conditions
60° at 8 knots 1 miles
  • Overcast at 500' AGL
  • Light Snow
  • Mist
From Jan-23 @ 09:00 to Jan-23 @ 12:00
FM230900 02009KT 3SM -SN BR OVC006
Wind Visibility Clouds Conditions
20° at 9 knots 3 miles
  • Overcast at 600' AGL
  • Light Snow
  • Mist
KRFD 221437Z 2215/2312 16013G21KT 3SM -FZDZSN OVC020 FM221900 16011G18KT 1SM -SN OVC008 FM222100 17010KT 1SM -SN OVC007 FM230100 06008KT 1SM -SN BR OVC005 FM230900 02009KT 3SM -SN BR OVC006
Issued Jan-22 @ 14:37 UTC
(2 hours ago)
Valid From Jan-22 @ 15:00 UTC
(2 hours ago)
Valid To Jan-23 @ 12:00 UTC
(in 19 hours)
Jan-22 @ 15:00 - Jan-22 @ 19:00
Wind Visibility
160° at 13 knots
 Gusting to 21 knots
3 miles
Clouds
  • Overcast at 2,000' AGL
Conditions
  • Light Freezing
  • Light Drizzle
  • Snow
From Jan-22 @ 19:00 - Jan-22 @ 21:00
Wind Visibility
160° at 11 knots
 Gusting to 18 knots
1 miles
Clouds
  • Overcast at 800' AGL
Conditions
  • Light Snow
From Jan-22 @ 21:00 - Jan-23 @ 01:00
Wind Visibility
170° at 10 knots 1 miles
Clouds
  • Overcast at 700' AGL
Conditions
  • Light Snow
From Jan-23 @ 01:00 - Jan-23 @ 09:00
Wind Visibility
60° at 8 knots 1 miles
Clouds
  • Overcast at 500' AGL
Conditions
  • Light Snow
  • Mist
From Jan-23 @ 09:00 - Jan-23 @ 12:00
Wind Visibility
20° at 9 knots 3 miles
Clouds
  • Overcast at 600' AGL
Conditions
  • Light Snow
  • Mist